Aérodrome :
LOGIN :

S'inscrire | Disclaimer

   EN    FR    IT 

 










Légende :    VFR   VFR Marginal   IFR   IFR Intensif   IFR Très Intensif
Visi : 
Plafond : 
>= 8 km
>= 3000ft
5 à 8 km
1000 à 3000 ft
1500m à 5 km
500 à 1000 ft
800 à 1500m
200 à 500 ft
< 800m
< 200 ft
Symboles :   Orages  Brouillard  Fortes neiges  Fortes précipitations  Vent > 20 kt
SIGMETs :   Divers  Orages  Givrage  Turbulence  Onde Orograph.  Cendres Volcan.







- Altitude de l'aérodrome : 147 ft
- Code IATA : DUS


EDDL - Düsseldorf Int.

DERNIER METAR :
  • 300250Z 04001KT CAVOK 01/M01 Q1015 NOSIG

METARs EXPIRÉS :
  • 300220Z 06002KT CAVOK 01/M01 Q1015 NOSIG
  • 300150Z VRB01KT CAVOK 02/M01 Q1015 NOSIG
  • 300120Z 07004KT CAVOK 03/M01 Q1015 NOSIG
  • 300050Z 10004KT CAVOK 05/M01 Q1016 NOSIG
  • 300020Z 11006KT CAVOK 05/M01 Q1016 NOSIG

TAF TAF EDDL
Valide du 30 à 00h jusqu'au 01 à 06h UTC


292300Z 3000/0106 10006KT CAVOK
BECMG 3008/3011 13015G25KT
BECMG 3018/3021 11009KT
Pas de NOTAMs connus pour ce terrain.



MET'MAP, la Météo Aéronautique d'un coup d'oeil ! - Copyright ORBIFLY Décembre 2007 - Disclaimer

ORBIFLY MET'MAP TEAM :

Programmation & Développement : Alexandra Zaïnal
Conception & Développement : Baudouin d'Aumeries
Co-Programmation & Développement : Marc-Olivier Méhu
Soutien technique & logistique : Manuel Goepfert

Contact : metmap@orbifly.com




SOURCES & CREDITS :

   NOAA